createdAt,value
2019-01-24T00:01:42.773Z,-2.15
2019-01-24T00:04:16.855Z,-2.13
2019-01-24T00:06:49.030Z,-1.93
2019-01-24T00:09:22.466Z,-1.71
2019-01-24T00:11:55.707Z,-2.02
2019-01-24T00:14:28.377Z,-2.27
2019-01-24T00:17:00.583Z,-2.25
2019-01-24T00:19:33.780Z,-2.07
2019-01-24T00:22:06.849Z,-1.91
2019-01-24T00:24:40.521Z,-2.27
2019-01-24T00:27:13.246Z,-2.34
2019-01-24T00:29:45.807Z,-2.33
2019-01-24T00:32:20.106Z,-2.33
2019-01-24T00:34:52.886Z,-2.28
2019-01-24T00:37:25.585Z,-2.34
2019-01-24T00:40:03.973Z,-2.13
2019-01-24T00:42:39.918Z,-2.26
2019-01-24T00:45:28.379Z,-2.15
2019-01-24T00:48:01.859Z,-2.47
2019-01-24T00:50:36.934Z,-2.57
2019-01-24T00:53:09.941Z,-2.51
2019-01-24T00:55:44.445Z,-2.31
2019-01-24T00:58:17.550Z,-2.11
2019-01-24T01:00:50.083Z,-2.05
2019-01-24T01:03:23.758Z,-2.54
2019-01-24T01:05:56.817Z,-2.41
2019-01-24T01:08:29.288Z,-2.57
2019-01-24T01:11:01.930Z,-2.35
2019-01-24T01:13:35.209Z,-2.39
2019-01-24T01:16:07.671Z,-2.41
2019-01-24T01:18:42.028Z,-2.79
2019-01-24T01:21:15.026Z,-2.37
2019-01-24T01:23:48.606Z,-2.16
2019-01-24T01:26:21.179Z,-2.15
2019-01-24T01:28:54.083Z,-2.33
2019-01-24T01:31:26.629Z,-2.33
2019-01-24T01:34:00.568Z,-1.93
2019-01-24T01:36:33.110Z,-1.88
2019-01-24T01:39:08.114Z,-1.74
2019-01-24T01:41:40.465Z,-2.21
2019-01-24T01:44:13.141Z,-1.97
2019-01-24T01:46:45.475Z,-1.80
2019-01-24T01:49:18.315Z,-2.18
2019-01-24T01:51:50.515Z,-1.89
2019-01-24T01:54:23.566Z,-1.91
2019-01-24T01:56:56.868Z,-1.77
2019-01-24T01:59:29.669Z,-1.81
2019-01-24T02:02:05.118Z,-2.53
2019-01-24T02:04:42.885Z,-3.03
2019-01-24T02:07:12.761Z,-2.92
2019-01-24T02:09:45.758Z,-2.41
2019-01-24T02:12:20.792Z,-2.59
2019-01-24T02:14:53.997Z,-2.75
2019-01-24T02:17:26.777Z,-2.97
2019-01-24T02:20:00.051Z,-2.85
2019-01-24T02:22:32.908Z,-2.99
2019-01-24T02:28:16.054Z,-3.11
2019-01-24T02:30:50.183Z,-2.99
2019-01-24T02:33:22.667Z,-3.03
2019-01-24T02:35:55.210Z,-2.91
2019-01-24T02:38:27.368Z,-3.07
2019-01-24T02:41:00.090Z,-3.07
2019-01-24T02:43:32.660Z,-3.49
2019-01-24T02:46:05.299Z,-3.32
2019-01-24T02:48:38.030Z,-3.51
2019-01-24T02:51:12.039Z,-3.14
2019-01-24T02:53:44.378Z,-3.00
2019-01-24T02:56:16.769Z,-3.17
2019-01-24T02:58:49.570Z,-3.08
2019-01-24T03:01:21.723Z,-3.14
2019-01-24T03:03:54.479Z,-3.09
2019-01-24T03:06:26.631Z,-2.85
2019-01-24T03:08:58.613Z,-2.63
2019-01-24T03:11:31.163Z,-2.82
2019-01-24T03:14:03.396Z,-2.71
2019-01-24T03:16:36.660Z,-2.64
2019-01-24T03:19:09.016Z,-2.66
2019-01-24T03:21:41.969Z,-2.51
2019-01-24T03:24:14.358Z,-2.86
2019-01-24T03:26:50.581Z,-2.91
2019-01-24T03:29:23.299Z,-2.67
2019-01-24T03:31:55.428Z,-2.75
2019-01-24T03:34:27.753Z,-2.92
2019-01-24T03:37:00.198Z,-3.09
2019-01-24T03:39:38.723Z,-3.21
2019-01-24T03:42:11.251Z,-3.44
2019-01-24T03:44:43.751Z,-3.10
2019-01-24T03:47:14.985Z,-2.83
2019-01-24T03:49:46.607Z,-2.75
2019-01-24T03:52:18.194Z,-2.76
2019-01-24T03:54:49.739Z,-2.92
2019-01-24T03:57:22.785Z,-3.11
2019-01-24T03:59:55.324Z,-3.28
2019-01-24T04:02:27.652Z,-3.27
2019-01-24T04:05:01.756Z,-3.05
2019-01-24T04:07:34.207Z,-3.43
2019-01-24T04:10:11.505Z,-3.17
2019-01-24T04:12:44.005Z,-3.06
2019-01-24T04:15:28.643Z,-3.29
2019-01-24T04:18:01.132Z,-3.43
2019-01-24T04:20:44.967Z,-3.52
2019-01-24T04:23:17.107Z,-3.51
2019-01-24T04:25:49.893Z,-3.41
2019-01-24T04:28:22.755Z,-3.34
2019-01-24T04:30:54.794Z,-3.03
2019-01-24T04:33:28.240Z,-2.73
2019-01-24T04:36:00.669Z,-2.80
2019-01-24T04:38:32.788Z,-2.92
2019-01-24T04:41:04.839Z,-2.88
2019-01-24T04:43:36.964Z,-2.88
2019-01-24T04:46:08.979Z,-2.73
2019-01-24T04:48:41.323Z,-2.37
2019-01-24T04:51:13.945Z,-2.30
2019-01-24T04:53:46.413Z,-2.75
2019-01-24T04:56:18.487Z,-3.14
2019-01-24T04:58:53.420Z,-3.17
2019-01-24T05:01:25.966Z,-3.25
2019-01-24T05:03:58.392Z,-2.94
2019-01-24T05:06:30.465Z,-2.66
2019-01-24T05:09:03.028Z,-2.53
2019-01-24T05:11:35.447Z,-2.40
2019-01-24T05:14:07.499Z,-2.64
2019-01-24T05:16:39.562Z,-2.78
2019-01-24T05:19:11.914Z,-2.81
2019-01-24T05:21:59.982Z,-2.84
2019-01-24T05:24:33.548Z,-2.77
2019-01-24T05:27:05.970Z,-2.39
2019-01-24T05:29:38.753Z,-2.63
2019-01-24T05:32:11.419Z,-2.49
2019-01-24T05:34:44.053Z,-2.37
2019-01-24T05:37:16.086Z,-2.16
2019-01-24T05:39:48.629Z,-2.87
2019-01-24T05:42:20.970Z,-2.51
2019-01-24T05:44:53.801Z,-2.43
2019-01-24T05:47:26.886Z,-2.54
2019-01-24T05:50:01.391Z,-2.76
2019-01-24T05:52:33.625Z,-2.60
2019-01-24T05:55:07.591Z,-2.57
2019-01-24T05:57:40.181Z,-2.31
2019-01-24T06:00:18.182Z,-2.52
2019-01-24T06:02:51.762Z,-2.90
2019-01-24T06:05:25.559Z,-2.48
2019-01-24T06:07:57.737Z,-2.33
2019-01-24T06:10:30.425Z,-2.62
2019-01-24T06:13:03.171Z,-2.39
2019-01-24T06:15:36.035Z,-2.59
2019-01-24T06:18:13.175Z,-2.55
2019-01-24T06:20:47.205Z,-2.42
2019-01-24T06:23:20.729Z,-2.66
2019-01-24T06:25:54.782Z,-2.68
2019-01-24T06:28:27.193Z,-2.68
2019-01-24T06:30:59.463Z,-2.39
2019-01-24T06:33:31.672Z,-2.64
2019-01-24T06:36:04.715Z,-2.76
2019-01-24T06:38:37.155Z,-2.94
2019-01-24T06:41:09.725Z,-3.20
2019-01-24T06:43:44.653Z,-3.04
2019-01-24T06:46:16.922Z,-2.78
2019-01-24T06:48:49.608Z,-2.72
2019-01-24T06:51:25.309Z,-2.72
2019-01-24T06:53:57.900Z,-2.77
2019-01-24T06:56:30.673Z,-2.64
2019-01-24T06:59:03.417Z,-2.44
2019-01-24T07:01:36.165Z,-2.38
2019-01-24T07:04:08.982Z,-2.28
2019-01-24T07:06:42.217Z,-2.56
2019-01-24T07:09:15.911Z,-2.67
2019-01-24T07:11:48.319Z,-2.67
2019-01-24T07:14:21.052Z,-2.32
2019-01-24T07:16:53.163Z,-2.18
2019-01-24T07:19:26.198Z,-2.00
2019-01-24T07:21:58.802Z,-2.59
2019-01-24T07:24:31.578Z,-2.44
2019-01-24T07:27:03.802Z,-2.24
2019-01-24T07:29:36.568Z,-1.93
2019-01-24T07:32:08.699Z,-2.02
2019-01-24T07:34:40.898Z,-1.86
2019-01-24T07:37:12.935Z,-1.75
2019-01-24T07:39:45.978Z,-2.02
2019-01-24T07:42:18.422Z,-1.66
2019-01-24T07:44:52.006Z,-1.51
2019-01-24T07:47:23.945Z,-1.41
2019-01-24T07:49:56.134Z,-1.39
2019-01-24T07:52:28.542Z,-1.40
2019-01-24T07:55:01.335Z,-1.49
2019-01-24T07:57:34.084Z,-1.27
2019-01-24T08:00:09.556Z,-1.56
2019-01-24T08:02:42.505Z,-1.94
2019-01-24T08:05:15.085Z,-1.77
2019-01-24T08:07:47.943Z,-2.03
2019-01-24T08:10:21.492Z,-2.07
2019-01-24T08:12:53.664Z,-1.76
2019-01-24T08:15:25.670Z,-1.45
2019-01-24T08:17:57.845Z,-1.82
2019-01-24T08:20:30.306Z,-1.72
2019-01-24T08:23:03.467Z,-1.50
2019-01-24T08:25:36.515Z,-1.69
2019-01-24T08:28:08.681Z,-1.94
2019-01-24T08:30:40.724Z,-1.97
2019-01-24T08:33:13.115Z,-1.72
2019-01-24T08:35:45.148Z,-1.42
2019-01-24T08:38:17.348Z,-1.78
2019-01-24T08:40:49.528Z,-2.13
2019-01-24T08:43:21.549Z,-1.92
2019-01-24T08:45:54.186Z,-1.65
2019-01-24T08:48:26.837Z,-1.46
2019-01-24T08:50:59.069Z,-1.46
2019-01-24T08:53:31.312Z,-2.06
2019-01-24T08:56:03.681Z,-1.95
2019-01-24T08:58:35.808Z,-1.62
2019-01-24T09:01:07.966Z,-1.51
2019-01-24T09:03:40.010Z,-1.49
2019-01-24T09:06:13.844Z,-1.94
2019-01-24T09:08:46.192Z,-1.85
2019-01-24T09:11:19.028Z,-2.06
2019-01-24T09:13:51.438Z,-2.48
2019-01-24T09:16:23.718Z,-2.35
2019-01-24T09:18:56.232Z,-1.92
2019-01-24T09:21:28.404Z,-1.96
2019-01-24T09:24:02.868Z,-1.66
2019-01-24T09:26:35.907Z,-1.56
2019-01-24T09:29:07.935Z,-1.77
2019-01-24T09:31:40.946Z,-1.76
2019-01-24T09:34:15.647Z,-2.09
2019-01-24T09:36:49.112Z,-2.29
2019-01-24T09:39:22.679Z,-2.10
2019-01-24T09:41:55.639Z,-2.12
2019-01-24T09:44:28.824Z,-2.12
2019-01-24T09:47:01.760Z,-1.92
2019-01-24T09:49:34.333Z,-1.94
2019-01-24T09:52:06.829Z,-1.61
2019-01-24T09:54:45.346Z,-1.50
2019-01-24T09:57:18.787Z,-1.42
2019-01-24T09:59:53.810Z,-1.53
2019-01-24T10:02:38.468Z,-1.75
2019-01-24T10:05:17.889Z,-1.67
2019-01-24T10:07:51.221Z,-1.61
2019-01-24T10:10:26.750Z,-1.73
2019-01-24T10:12:58.962Z,-1.61
2019-01-24T10:15:36.233Z,-1.71
2019-01-24T10:18:08.903Z,-1.99
2019-01-24T10:20:41.201Z,-1.55
2019-01-24T10:23:13.187Z,-1.36
2019-01-24T10:25:45.177Z,-1.51
2019-01-24T10:28:17.348Z,-1.51
2019-01-24T10:30:54.035Z,-1.42
2019-01-24T10:33:29.625Z,-1.75
2019-01-24T10:36:02.314Z,-2.05
2019-01-24T10:38:35.572Z,-1.89
2019-01-24T10:41:08.970Z,-1.84
2019-01-24T10:43:41.120Z,-2.12
2019-01-24T10:46:13.438Z,-1.87
2019-01-24T10:48:46.651Z,-1.89
2019-01-24T10:51:19.849Z,-2.09
2019-01-24T10:53:53.777Z,-2.14
2019-01-24T10:56:27.132Z,-1.82
2019-01-24T10:59:02.616Z,-1.48
2019-01-24T11:01:48.894Z,-1.67
2019-01-24T11:04:21.566Z,-2.07
2019-01-24T11:06:56.978Z,-2.26
2019-01-24T11:09:29.765Z,-2.20
2019-01-24T11:12:02.196Z,-2.04
2019-01-24T11:14:36.869Z,-1.88
2019-01-24T11:17:08.938Z,-1.73
2019-01-24T11:19:42.230Z,-1.80
2019-01-24T11:22:16.711Z,-1.67
2019-01-24T11:24:49.212Z,-1.58
2019-01-24T11:27:21.290Z,-1.35
2019-01-24T11:29:53.989Z,-1.17
2019-01-24T11:32:26.889Z,-0.89
2019-01-24T11:34:59.179Z,-0.88
2019-01-24T11:37:31.803Z,-1.33
2019-01-24T11:40:05.529Z,-1.54
2019-01-24T11:42:38.165Z,-1.49
2019-01-24T11:45:11.841Z,-1.66
2019-01-24T11:47:44.252Z,-1.25
2019-01-24T11:50:17.989Z,-1.10
2019-01-24T11:52:49.880Z,-1.32
2019-01-24T11:55:23.164Z,-1.45
2019-01-24T11:57:55.135Z,-1.43
2019-01-24T12:00:36.188Z,-1.61
2019-01-24T12:03:08.451Z,-1.54
2019-01-24T12:05:40.853Z,-1.51
2019-01-24T12:08:13.995Z,-1.87
2019-01-24T12:10:46.148Z,-1.95
2019-01-24T12:13:18.726Z,-1.86
2019-01-24T12:15:51.406Z,-1.88
2019-01-24T12:18:25.390Z,-1.57
2019-01-24T12:20:58.889Z,-1.73
2019-01-24T12:23:31.289Z,-1.72
2019-01-24T12:26:03.791Z,-1.45
2019-01-24T12:28:54.616Z,-1.34
2019-01-24T12:31:27.068Z,-1.43
2019-01-24T12:34:42.045Z,-1.56
2019-01-24T12:37:16.319Z,-1.87
2019-01-24T12:39:49.588Z,-1.56
2019-01-24T12:42:21.652Z,-1.69
2019-01-24T12:44:58.776Z,-1.37
2019-01-24T12:47:31.512Z,-1.00
2019-01-24T12:50:05.194Z,-1.16
2019-01-24T12:52:38.640Z,-1.12
2019-01-24T12:55:11.734Z,-1.65
2019-01-24T12:57:49.697Z,-1.43
2019-01-24T13:00:24.932Z,-1.18
2019-01-24T13:02:58.013Z,-0.88
2019-01-24T13:05:32.224Z,-0.71
2019-01-24T13:08:10.100Z,-0.79
2019-01-24T13:10:42.038Z,-0.66
2019-01-24T13:13:15.727Z,-0.64
2019-01-24T13:15:52.104Z,-0.59
2019-01-24T13:18:26.934Z,-0.47
2019-01-24T13:21:40.099Z,-0.57
2019-01-24T13:24:11.866Z,-0.40
2019-01-24T13:26:46.684Z,-0.71
2019-01-24T13:29:19.209Z,-0.67
2019-01-24T13:31:51.951Z,-0.80
2019-01-24T13:34:25.206Z,-0.61
2019-01-24T13:36:58.252Z,-0.40
2019-01-24T13:39:30.822Z,-0.41
2019-01-24T13:42:03.151Z,-0.51
2019-01-24T13:44:34.969Z,-0.45
2019-01-24T13:47:07.633Z,-0.31
2019-01-24T13:49:39.997Z,-0.44
2019-01-24T13:52:12.148Z,-0.95
2019-01-24T13:54:45.811Z,-0.94
2019-01-24T13:57:46.748Z,-0.57
2019-01-24T14:00:22.207Z,-0.86
2019-01-24T14:02:59.751Z,-0.47
2019-01-24T14:05:32.585Z,-0.27
2019-01-24T14:08:05.022Z,-0.27
2019-01-24T14:10:37.337Z,-0.29
2019-01-24T14:13:09.851Z,-0.43
2019-01-24T14:15:42.060Z,-0.18
2019-01-24T14:18:14.805Z,-0.37
2019-01-24T14:20:46.528Z,-0.35
2019-01-24T14:23:19.668Z,-0.19
2019-01-24T14:25:52.550Z,-0.21
2019-01-24T14:28:25.226Z,-0.28
2019-01-24T14:30:59.873Z,-0.60
2019-01-24T14:33:32.056Z,-0.41
2019-01-24T14:36:05.296Z,-0.32
2019-01-24T14:38:39.489Z,-0.33
2019-01-24T14:41:14.596Z,-0.14
2019-01-24T14:43:48.294Z,-0.17
2019-01-24T14:46:20.431Z,-0.29
2019-01-24T14:48:53.401Z,-0.20
2019-01-24T14:51:26.018Z,-0.15
2019-01-24T14:53:57.926Z,-0.13
2019-01-24T14:56:30.776Z,-0.32
2019-01-24T14:59:03.315Z,-0.44
2019-01-24T15:01:36.058Z,-0.51
2019-01-24T15:04:09.031Z,-0.41
2019-01-24T15:06:43.078Z,-0.22
2019-01-24T15:09:15.368Z,-0.29
2019-01-24T15:11:52.404Z,-0.37
2019-01-24T15:14:25.950Z,-0.48
2019-01-24T15:16:59.705Z,-0.58
2019-01-24T15:19:32.065Z,-0.69
2019-01-24T15:22:05.032Z,-0.88
2019-01-24T15:24:40.438Z,-1.11
2019-01-24T15:27:15.958Z,-1.15
2019-01-24T15:29:48.703Z,-0.95
2019-01-24T15:32:25.798Z,-0.81
2019-01-24T15:34:59.046Z,-0.44
2019-01-24T15:37:33.216Z,-0.34
2019-01-24T15:40:08.918Z,-0.47
2019-01-24T15:42:42.074Z,-0.72
2019-01-24T15:45:16.272Z,-0.62
2019-01-24T15:47:48.943Z,-0.47
2019-01-24T15:50:22.530Z,-0.29
2019-01-24T15:52:55.005Z,-0.29
2019-01-24T15:55:29.314Z,-0.51
2019-01-24T15:58:03.571Z,-0.40
2019-01-24T16:00:36.223Z,-0.93
2019-01-24T16:03:09.591Z,-0.88
2019-01-24T16:05:43.071Z,-0.86
2019-01-24T16:08:16.259Z,-0.80
2019-01-24T16:10:48.419Z,-0.45
2019-01-24T16:13:21.782Z,-0.63
2019-01-24T16:15:54.863Z,-0.47
2019-01-24T16:18:29.158Z,-0.42
2019-01-24T16:21:02.436Z,-0.36
2019-01-24T16:23:34.821Z,-0.78
2019-01-24T16:26:08.114Z,-0.71
2019-01-24T16:28:42.713Z,-0.50
2019-01-24T16:31:16.278Z,-0.28
2019-01-24T16:33:48.875Z,-0.44
2019-01-24T16:36:21.724Z,-0.57
2019-01-24T16:38:54.330Z,-0.52
2019-01-24T16:41:28.586Z,-0.40
2019-01-24T16:44:01.238Z,-0.19
2019-01-24T16:46:33.406Z,-0.30
2019-01-24T16:49:08.316Z,-0.21
2019-01-24T16:51:43.289Z,-0.35
2019-01-24T16:54:15.634Z,-0.15
2019-01-24T16:56:47.580Z,-0.16
2019-01-24T16:59:41.697Z,0.02
2019-01-24T17:02:16.132Z,-0.47
2019-01-24T17:05:08.706Z,-0.14
2019-01-24T17:07:42.916Z,-0.03
2019-01-24T17:10:42.283Z,0.00
2019-01-24T17:13:16.044Z,-0.08
2019-01-24T17:15:48.417Z,-0.26
2019-01-24T17:21:16.699Z,0.00
2019-01-24T17:23:50.024Z,-0.10
2019-01-24T17:26:23.026Z,-0.05
2019-01-24T17:28:56.262Z,-0.02
2019-01-24T17:31:28.443Z,0.05
2019-01-24T17:34:00.893Z,-0.45
2019-01-24T17:36:33.465Z,-0.24
2019-01-24T17:39:08.676Z,0.18
2019-01-24T17:41:41.732Z,0.13
2019-01-24T17:44:37.804Z,0.24
2019-01-24T17:47:10.302Z,0.18
2019-01-24T17:49:44.590Z,0.02
2019-01-24T17:52:19.445Z,0.01
2019-01-24T17:54:52.304Z,0.05
2019-01-24T17:57:24.896Z,0.14
2019-01-24T17:59:58.866Z,0.15
2019-01-24T18:02:32.777Z,0.01
2019-01-24T18:05:06.686Z,0.01
2019-01-24T18:07:38.911Z,-0.14
2019-01-24T18:10:15.362Z,-0.47
2019-01-24T18:12:47.746Z,-0.18
2019-01-24T18:15:22.636Z,-0.06
2019-01-24T18:17:55.680Z,0.06
2019-01-24T18:20:33.160Z,0.13
2019-01-24T18:23:06.980Z,0.16
2019-01-24T18:25:40.498Z,-0.46
2019-01-24T18:28:14.318Z,-0.63
2019-01-24T18:30:46.774Z,-0.56
2019-01-24T18:33:19.704Z,-0.53
2019-01-24T18:35:51.782Z,-0.47
2019-01-24T18:38:23.607Z,-0.21
2019-01-24T18:40:56.234Z,-0.26
2019-01-24T18:43:30.159Z,-0.01
2019-01-24T18:46:04.368Z,-0.07
2019-01-24T18:48:36.580Z,0.12
2019-01-24T18:51:09.338Z,-0.02
2019-01-24T18:53:42.896Z,-0.01
2019-01-24T18:56:15.266Z,-0.14
2019-01-24T18:58:47.815Z,-0.07
2019-01-24T19:01:19.886Z,-0.07
2019-01-24T19:03:52.354Z,0.09
2019-01-24T19:06:25.792Z,0.02
2019-01-24T19:09:00.854Z,0.07
2019-01-24T19:11:35.118Z,-0.14
2019-01-24T19:14:07.903Z,-0.50
2019-01-24T19:16:41.923Z,-0.37
2019-01-24T19:19:14.534Z,-0.40
2019-01-24T19:21:48.179Z,-0.39
2019-01-24T19:24:21.184Z,-0.70
2019-01-24T19:26:53.852Z,-0.49
2019-01-24T19:29:27.599Z,-0.29
2019-01-24T19:31:59.993Z,-0.79
2019-01-24T19:34:33.183Z,-0.81
2019-01-24T19:37:06.119Z,-0.64
2019-01-24T19:39:38.063Z,-0.24
2019-01-24T19:42:10.436Z,-0.41
2019-01-24T19:44:42.923Z,-0.26
2019-01-24T19:47:15.394Z,-0.18
2019-01-24T19:49:47.520Z,-0.42
2019-01-24T19:52:21.117Z,-0.81
2019-01-24T19:54:53.540Z,-0.92
2019-01-24T19:57:26.932Z,-1.18
2019-01-24T19:59:59.818Z,-0.87
2019-01-24T20:02:32.840Z,-0.61
2019-01-24T20:05:06.197Z,-0.31
2019-01-24T20:07:40.016Z,-0.14
2019-01-24T20:10:15.523Z,-0.37
2019-01-24T20:12:48.035Z,-0.51
2019-01-24T20:15:22.888Z,-0.62
2019-01-24T20:17:54.778Z,-0.59
2019-01-24T20:20:28.365Z,-0.45
2019-01-24T20:23:04.032Z,-0.42
2019-01-24T20:25:37.964Z,-0.85
2019-01-24T20:28:10.843Z,-0.97
2019-01-24T20:30:45.068Z,-1.11
2019-01-24T20:33:17.961Z,-1.03
2019-01-24T20:36:00.137Z,-1.01
2019-01-24T20:38:32.966Z,-1.16
2019-01-24T20:41:06.542Z,-1.10
2019-01-24T20:43:39.978Z,-1.06
2019-01-24T20:46:12.170Z,-1.06
2019-01-24T20:48:45.145Z,-0.76
2019-01-24T20:51:17.570Z,-0.80
2019-01-24T20:53:50.653Z,-1.16
2019-01-24T20:56:24.166Z,-1.15
2019-01-24T20:59:04.847Z,-1.24
2019-01-24T21:01:37.611Z,-1.30
2019-01-24T21:04:10.833Z,-1.10
2019-01-24T21:06:43.304Z,-1.32
2019-01-24T21:09:15.611Z,-1.07
2019-01-24T21:11:48.315Z,-0.96
2019-01-24T21:14:20.872Z,-1.27
2019-01-24T21:16:54.275Z,-1.30
2019-01-24T21:19:27.735Z,-1.00
2019-01-24T21:22:00.211Z,-0.75
2019-01-24T21:24:32.441Z,-0.78
2019-01-24T21:27:05.403Z,-0.89
2019-01-24T21:29:37.633Z,-0.95
2019-01-24T21:32:09.484Z,-0.59
2019-01-24T21:34:44.880Z,-0.39
2019-01-24T21:37:18.767Z,-0.30
2019-01-24T21:39:51.426Z,-0.28
2019-01-24T21:42:23.942Z,-0.42
2019-01-24T21:44:57.715Z,-0.61
2019-01-24T21:47:30.499Z,-0.59
2019-01-24T21:50:03.655Z,-0.46
2019-01-24T21:52:35.499Z,-0.64
2019-01-24T21:55:08.602Z,-0.65
2019-01-24T21:57:41.249Z,-0.64
2019-01-24T22:00:16.886Z,-0.66
2019-01-24T22:02:49.416Z,-1.05
2019-01-24T22:05:23.176Z,-0.66
2019-01-24T22:07:56.868Z,-0.88
2019-01-24T22:10:30.660Z,-1.10
2019-01-24T22:13:02.924Z,-1.26
2019-01-24T22:15:35.818Z,-1.03
2019-01-24T22:18:08.549Z,-0.96
2019-01-24T22:20:40.535Z,-0.86
2019-01-24T22:23:14.677Z,-1.05
2019-01-24T22:25:46.923Z,-1.06
2019-01-24T22:28:19.820Z,-1.20
2019-01-24T22:30:55.298Z,-1.34
2019-01-24T22:33:27.449Z,-0.99
2019-01-24T22:35:59.728Z,-1.08
2019-01-24T22:38:32.064Z,-1.28
2019-01-24T22:41:05.245Z,-0.79
2019-01-24T22:43:37.463Z,-0.68
2019-01-24T22:46:10.347Z,-0.55
2019-01-24T22:48:42.919Z,-0.25
2019-01-24T22:51:15.182Z,-0.23
2019-01-24T22:53:48.238Z,-0.42
2019-01-24T22:56:21.485Z,-0.16
2019-01-24T22:58:53.838Z,-0.27
2019-01-24T23:01:37.492Z,-0.61
2019-01-24T23:04:21.882Z,-0.67
2019-01-24T23:06:54.182Z,-1.08
2019-01-24T23:09:26.575Z,-1.07
2019-01-24T23:11:59.542Z,-0.54
2019-01-24T23:14:34.118Z,-0.76
2019-01-24T23:17:07.377Z,-0.52
2019-01-24T23:19:39.723Z,-0.83
2019-01-24T23:22:12.152Z,-0.98
2019-01-24T23:24:44.830Z,-1.18
2019-01-24T23:27:17.029Z,-0.66
2019-01-24T23:29:50.056Z,-0.93
2019-01-24T23:32:22.079Z,-1.15
2019-01-24T23:34:54.563Z,-1.32
2019-01-24T23:37:27.988Z,-1.33
2019-01-24T23:40:00.349Z,-0.85
2019-01-24T23:42:33.451Z,-0.80
2019-01-24T23:45:06.704Z,-0.63
2019-01-24T23:48:51.897Z,-0.84
2019-01-24T23:51:24.193Z,-1.03
2019-01-24T23:53:57.291Z,-0.85
2019-01-24T23:56:30.487Z,-0.47
2019-01-24T23:59:05.638Z,-0.96
